createdAt,value
2023-03-24T00:00:39.424Z,20.10
2023-03-24T00:03:08.910Z,21.10
2023-03-24T00:05:37.103Z,22.30
2023-03-24T00:08:10.401Z,19.80
2023-03-24T00:10:40.940Z,19.10
2023-03-24T00:13:09.482Z,18.70
2023-03-24T00:15:38.345Z,22.70
2023-03-24T00:18:10.982Z,18.50
2023-03-24T00:20:39.294Z,18.60
2023-03-24T00:23:07.865Z,22.20
2023-03-24T00:25:40.336Z,19.40
2023-03-24T00:28:11.519Z,23.70
2023-03-24T00:30:41.403Z,18.70
2023-03-24T00:33:09.909Z,19.20
2023-03-24T00:35:45.605Z,22.70
2023-03-24T00:38:15.381Z,20.40
2023-03-24T00:40:49.065Z,19.80
2023-03-24T00:43:18.006Z,24.90
2023-03-24T00:45:46.674Z,21.30
2023-03-24T00:48:20.407Z,20.30
2023-03-24T00:50:49.341Z,19.40
2023-03-24T00:53:18.566Z,18.70
2023-03-24T00:55:53.163Z,21.50
2023-03-24T00:58:22.070Z,18.10
2023-03-24T01:00:53.929Z,20.20
2023-03-24T01:03:27.678Z,18.70
2023-03-24T01:05:57.817Z,25.50
2023-03-24T01:08:26.155Z,21.40
2023-03-24T01:10:54.591Z,20.90
2023-03-24T01:13:28.904Z,21.20
2023-03-24T01:15:57.564Z,18.90
2023-03-24T01:18:25.636Z,20.80
2023-03-24T01:20:53.940Z,18.50
2023-03-24T01:23:23.862Z,21.20
2023-03-24T01:25:52.084Z,19.90
2023-03-24T01:28:24.961Z,22.30
2023-03-24T01:30:54.011Z,21.60
2023-03-24T01:33:22.314Z,18.30
2023-03-24T01:35:51.277Z,18.70
2023-03-24T01:38:20.200Z,22.60
2023-03-24T01:40:48.914Z,20.40
2023-03-24T01:43:27.671Z,20.40
2023-03-24T01:46:05.559Z,19.20
2023-03-24T01:48:52.305Z,17.20
2023-03-24T01:51:27.305Z,23.40
2023-03-24T01:54:18.100Z,24.30
2023-03-24T01:56:55.433Z,20.70
2023-03-24T01:59:28.728Z,18.40
2023-03-24T02:02:10.222Z,20.90
2023-03-24T02:04:56.079Z,18.20
2023-03-24T02:07:29.861Z,18.30
2023-03-24T02:10:17.723Z,13.90
2023-03-24T02:12:46.583Z,18.00
2023-03-24T02:15:17.991Z,16.10
2023-03-24T02:17:57.580Z,18.90
2023-03-24T02:20:44.339Z,18.60
2023-03-24T02:23:21.971Z,20.10
2023-03-24T02:26:07.712Z,18.60
2023-03-24T02:28:46.461Z,18.30
2023-03-24T02:31:24.432Z,18.80
2023-03-24T02:34:11.339Z,19.70
2023-03-24T02:36:55.475Z,19.20
2023-03-24T02:39:45.419Z,18.50
2023-03-24T02:42:32.161Z,20.70
2023-03-24T02:45:33.460Z,20.40
2023-03-24T02:48:44.103Z,19.40
2023-03-24T02:51:17.466Z,18.80
2023-03-24T02:53:54.680Z,17.40
2023-03-24T02:56:30.194Z,16.30
2023-03-24T02:59:03.929Z,15.90
2023-03-24T03:01:38.140Z,18.40
2023-03-24T03:05:06.431Z,16.10
2023-03-24T03:07:41.389Z,18.20
2023-03-24T03:10:15.958Z,16.90
2023-03-24T03:12:48.686Z,17.40
2023-03-24T03:15:23.273Z,19.70
2023-03-24T03:17:53.705Z,14.90
2023-03-24T03:20:25.052Z,18.80
2023-03-24T03:22:59.199Z,20.10
2023-03-24T03:25:29.764Z,16.90
2023-03-24T03:27:58.806Z,18.30
2023-03-24T03:30:33.935Z,17.20
2023-03-24T03:33:10.471Z,17.00
2023-03-24T03:35:42.550Z,15.00
2023-03-24T03:38:16.136Z,17.10
2023-03-24T03:43:32.088Z,16.30
2023-03-24T03:46:01.272Z,18.10
2023-03-24T03:51:12.417Z,17.90
2023-03-24T03:53:58.340Z,18.40
2023-03-24T03:56:31.801Z,16.70
2023-03-24T03:59:34.679Z,19.60
2023-03-24T04:02:37.341Z,18.20
2023-03-24T04:05:10.312Z,16.70
2023-03-24T04:07:48.900Z,17.60
2023-03-24T04:10:37.336Z,19.00
2023-03-24T04:13:26.553Z,18.10
2023-03-24T04:16:52.389Z,17.50
2023-03-24T04:22:24.710Z,19.70
2023-03-24T04:25:02.612Z,21.40
2023-03-24T04:27:40.108Z,18.20
2023-03-24T04:30:23.894Z,19.50
2023-03-24T04:33:00.859Z,17.30
2023-03-24T04:35:44.501Z,19.00
2023-03-24T04:38:27.825Z,18.90
2023-03-24T04:41:08.030Z,19.40
2023-03-24T04:43:37.518Z,17.40
2023-03-24T04:46:07.173Z,19.10
2023-03-24T04:48:55.691Z,16.70
2023-03-24T04:51:35.538Z,18.10
2023-03-24T04:54:16.239Z,18.30
2023-03-24T04:56:54.399Z,17.20
2023-03-24T04:59:24.826Z,21.40
2023-03-24T05:01:52.995Z,23.00
2023-03-24T05:04:51.224Z,22.60
2023-03-24T05:07:24.286Z,16.90
2023-03-24T05:09:57.627Z,18.60
2023-03-24T05:12:27.674Z,19.70
2023-03-24T05:15:14.356Z,19.90
2023-03-24T05:17:42.813Z,19.10
2023-03-24T05:20:12.160Z,18.40
2023-03-24T05:22:43.707Z,20.80
2023-03-24T05:25:12.259Z,19.80
2023-03-24T05:27:40.479Z,21.20
2023-03-24T05:30:17.780Z,17.20
2023-03-24T05:32:47.314Z,19.30
2023-03-24T05:35:16.240Z,19.20
2023-03-24T05:37:44.777Z,23.10
2023-03-24T05:40:13.836Z,19.20
2023-03-24T05:42:50.568Z,18.30
2023-03-24T05:45:19.778Z,22.30
2023-03-24T05:47:48.844Z,20.60
2023-03-24T05:50:18.529Z,19.40
2023-03-24T05:52:48.186Z,19.70
2023-03-24T05:55:31.014Z,21.20
2023-03-24T05:58:08.621Z,19.00
2023-03-24T06:00:49.810Z,20.10
2023-03-24T06:03:25.443Z,21.20
2023-03-24T06:06:03.784Z,16.10
2023-03-24T06:08:36.086Z,20.00
2023-03-24T06:11:05.673Z,17.70
2023-03-24T06:13:35.283Z,19.60
2023-03-24T06:16:07.763Z,16.70
2023-03-24T06:18:42.781Z,22.30
2023-03-24T06:21:20.673Z,22.20
2023-03-24T06:23:53.524Z,16.60
2023-03-24T06:26:31.097Z,17.00
2023-03-24T06:29:02.272Z,18.10
2023-03-24T06:31:36.084Z,20.10
2023-03-24T06:34:06.938Z,18.50
2023-03-24T06:36:35.248Z,18.10
2023-03-24T06:39:05.880Z,16.50
2023-03-24T06:41:34.788Z,17.60
2023-03-24T06:44:09.954Z,19.90
2023-03-24T06:46:40.793Z,17.40
2023-03-24T06:49:09.264Z,21.00
2023-03-24T06:51:37.948Z,17.00
2023-03-24T06:54:06.460Z,22.30
2023-03-24T06:56:36.841Z,19.00
2023-03-24T06:59:05.016Z,20.40
2023-03-24T07:01:36.286Z,17.20
2023-03-24T07:04:25.935Z,18.20
2023-03-24T07:07:19.630Z,16.90
2023-03-24T07:10:10.587Z,20.80
2023-03-24T07:12:40.599Z,21.30
2023-03-24T07:15:09.534Z,19.30
2023-03-24T07:17:41.654Z,21.10
2023-03-24T07:20:28.444Z,23.00
2023-03-24T07:23:14.949Z,20.40
2023-03-24T07:26:01.771Z,18.20
2023-03-24T07:28:50.987Z,19.20
2023-03-24T07:31:58.887Z,16.50
2023-03-24T07:34:28.514Z,21.70
2023-03-24T07:36:56.849Z,19.40
2023-03-24T07:39:28.510Z,20.40
2023-03-24T07:41:57.137Z,19.70
2023-03-24T07:44:32.818Z,20.40
2023-03-24T07:47:05.643Z,21.60
2023-03-24T07:49:34.912Z,20.20
2023-03-24T07:52:06.783Z,20.40
2023-03-24T07:54:48.460Z,17.30
2023-03-24T07:57:35.438Z,16.10
2023-03-24T08:00:18.236Z,21.10
2023-03-24T08:02:57.194Z,18.50
2023-03-24T08:05:53.091Z,16.20
2023-03-24T08:08:38.947Z,20.50
2023-03-24T08:11:07.056Z,17.20
2023-03-24T08:13:36.134Z,19.20
2023-03-24T08:16:04.758Z,17.60
2023-03-24T08:18:35.116Z,16.70
2023-03-24T08:21:06.276Z,18.50
2023-03-24T08:23:36.703Z,19.80
2023-03-24T08:26:05.084Z,17.40
2023-03-24T08:28:35.224Z,20.50
2023-03-24T08:31:04.428Z,19.70
2023-03-24T08:33:35.078Z,22.70
2023-03-24T08:36:04.973Z,21.10
2023-03-24T08:38:33.490Z,20.80
2023-03-24T08:41:06.879Z,21.90
2023-03-24T08:43:37.629Z,20.10
2023-03-24T08:46:14.036Z,18.40
2023-03-24T08:48:43.978Z,16.70
2023-03-24T08:51:16.126Z,22.50
2023-03-24T08:53:46.276Z,20.80
2023-03-24T08:56:14.553Z,22.80
2023-03-24T08:58:42.786Z,24.90
2023-03-24T09:01:10.944Z,25.30
2023-03-24T09:03:40.260Z,29.70
2023-03-24T09:06:08.984Z,22.10
2023-03-24T09:08:37.783Z,26.00
2023-03-24T09:11:06.560Z,23.60
2023-03-24T09:13:35.817Z,25.20
2023-03-24T09:16:04.221Z,23.00
2023-03-24T09:18:38.548Z,23.70
2023-03-24T09:21:07.050Z,21.80
2023-03-24T09:23:35.613Z,22.90
2023-03-24T09:26:03.900Z,22.40
2023-03-24T09:28:32.575Z,20.10
2023-03-24T09:31:02.714Z,20.90
2023-03-24T09:33:31.971Z,20.90
2023-03-24T09:36:01.321Z,27.30
2023-03-24T09:38:33.758Z,20.00
2023-03-24T09:41:04.247Z,19.70
2023-03-24T09:43:42.433Z,17.90
2023-03-24T09:46:21.724Z,20.60
2023-03-24T09:48:52.177Z,20.90
2023-03-24T09:51:24.002Z,22.40
2023-03-24T09:53:57.547Z,17.10
2023-03-24T09:56:26.541Z,21.20
2023-03-24T09:59:05.654Z,19.40
2023-03-24T10:01:37.118Z,18.10
2023-03-24T10:04:05.557Z,19.70
2023-03-24T10:06:42.808Z,22.00
2023-03-24T10:09:31.654Z,24.30
2023-03-24T10:12:11.929Z,21.80
2023-03-24T10:15:27.153Z,19.00
2023-03-24T10:18:14.478Z,21.80
2023-03-24T10:21:07.566Z,17.10
2023-03-24T10:23:41.106Z,17.40
2023-03-24T10:26:28.433Z,15.90
2023-03-24T10:29:22.201Z,19.60
2023-03-24T10:31:58.165Z,18.20
2023-03-24T10:34:33.493Z,18.70
2023-03-24T10:37:05.349Z,20.70
2023-03-24T10:39:43.957Z,20.30
2023-03-24T10:42:26.749Z,20.10
2023-03-24T10:45:01.710Z,20.10
2023-03-24T10:47:34.461Z,18.70
2023-03-24T10:50:15.742Z,18.80
2023-03-24T10:52:53.416Z,20.30
2023-03-24T10:55:23.771Z,16.90
2023-03-24T10:57:56.931Z,21.30
2023-03-24T11:00:29.939Z,16.00
2023-03-24T11:03:01.830Z,16.10
2023-03-24T11:05:35.848Z,16.20
2023-03-24T11:08:42.872Z,14.50
2023-03-24T11:11:15.853Z,14.80
2023-03-24T11:13:44.475Z,15.50
2023-03-24T11:16:14.759Z,12.60
2023-03-24T11:19:01.265Z,12.80
2023-03-24T11:21:30.800Z,11.90
2023-03-24T11:24:00.390Z,17.70
2023-03-24T11:26:35.868Z,12.70
2023-03-24T11:29:20.615Z,11.90
2023-03-24T11:31:57.317Z,14.50
2023-03-24T11:34:38.793Z,11.00
2023-03-24T11:37:18.544Z,12.50
2023-03-24T11:39:47.587Z,10.50
2023-03-24T11:42:16.672Z,15.90
2023-03-24T11:44:50.226Z,10.30
2023-03-24T11:47:36.467Z,11.00
2023-03-24T11:50:10.490Z,12.20
2023-03-24T11:53:04.355Z,12.50
2023-03-24T11:55:39.362Z,10.00
2023-03-24T11:58:49.973Z,11.90
2023-03-24T12:03:33.185Z,11.20
2023-03-24T12:06:11.889Z,11.50
2023-03-24T12:08:43.360Z,11.20
2023-03-24T12:11:33.604Z,13.40
2023-03-24T12:14:01.983Z,11.00
2023-03-24T12:17:03.824Z,12.40
2023-03-24T12:20:12.554Z,14.80
2023-03-24T12:22:48.133Z,9.10
2023-03-24T12:25:35.352Z,9.40
2023-03-24T12:28:09.639Z,10.50
2023-03-24T12:30:59.678Z,9.70
2023-03-24T12:33:58.197Z,10.40
2023-03-24T12:36:34.270Z,9.60
2023-03-24T12:39:13.705Z,8.30
2023-03-24T12:42:03.195Z,13.10
2023-03-24T12:44:34.133Z,10.30
2023-03-24T12:47:29.922Z,10.20
2023-03-24T12:50:24.209Z,6.60
2023-03-24T12:55:51.404Z,8.30
2023-03-24T12:58:21.702Z,9.40
2023-03-24T13:00:53.478Z,7.60
2023-03-24T13:03:41.673Z,8.30
2023-03-24T13:06:49.975Z,12.80
2023-03-24T13:09:32.032Z,8.30
2023-03-24T13:12:18.908Z,7.90
2023-03-24T13:15:04.239Z,10.10
2023-03-24T13:17:45.208Z,8.40
2023-03-24T13:20:17.285Z,8.60
2023-03-24T13:22:47.173Z,7.20
2023-03-24T13:25:38.129Z,10.10
2023-03-24T13:28:09.949Z,8.40
2023-03-24T13:30:41.564Z,7.40
2023-03-24T13:33:16.866Z,7.20
2023-03-24T13:35:58.091Z,9.20
2023-03-24T13:38:48.757Z,7.10
2023-03-24T13:41:27.205Z,7.60
2023-03-24T13:44:01.822Z,9.20
2023-03-24T13:46:30.974Z,6.40
2023-03-24T13:49:00.549Z,8.00
2023-03-24T13:51:38.170Z,8.40
2023-03-24T13:54:17.605Z,8.40
2023-03-24T13:57:09.256Z,6.20
2023-03-24T14:00:08.551Z,10.80
2023-03-24T14:02:47.295Z,11.80
2023-03-24T14:05:52.081Z,7.40
2023-03-24T14:08:22.120Z,9.30
2023-03-24T14:10:50.773Z,6.70
2023-03-24T14:13:22.339Z,8.60
2023-03-24T14:15:55.834Z,7.50
2023-03-24T14:18:27.225Z,8.00
2023-03-24T14:21:02.528Z,8.60
2023-03-24T14:23:40.613Z,9.20
2023-03-24T14:26:23.320Z,7.10
2023-03-24T14:28:52.632Z,9.80
2023-03-24T14:31:33.669Z,9.10
2023-03-24T14:34:14.078Z,10.90
2023-03-24T14:36:43.563Z,13.20
2023-03-24T14:39:28.416Z,11.20
2023-03-24T14:41:59.077Z,11.30
2023-03-24T14:44:46.729Z,12.20
2023-03-24T14:47:36.059Z,9.30
2023-03-24T14:50:12.814Z,10.00
2023-03-24T14:52:43.069Z,10.80
2023-03-24T14:55:19.914Z,13.30
2023-03-24T14:57:53.181Z,10.80
2023-03-24T15:01:03.890Z,14.40
2023-03-24T15:04:07.484Z,10.20
2023-03-24T15:06:44.782Z,12.90
2023-03-24T15:09:14.286Z,9.50
2023-03-24T15:11:42.776Z,12.60
2023-03-24T15:14:17.911Z,10.40
2023-03-24T15:16:52.609Z,11.20
2023-03-24T15:19:27.487Z,10.80
2023-03-24T15:22:02.739Z,9.70
2023-03-24T15:24:40.627Z,9.60
2023-03-24T15:27:09.378Z,10.00
2023-03-24T15:29:40.366Z,9.80
2023-03-24T15:32:19.513Z,11.70
2023-03-24T15:34:56.493Z,9.70
2023-03-24T15:37:38.563Z,9.90
2023-03-24T15:43:06.947Z,10.30
2023-03-24T15:45:51.013Z,11.40
2023-03-24T15:48:30.775Z,12.10
2023-03-24T15:51:03.743Z,16.10
2023-03-24T15:53:45.893Z,14.90
2023-03-24T15:56:19.358Z,11.30
2023-03-24T15:58:54.646Z,13.00
2023-03-24T16:01:31.734Z,12.00
2023-03-24T16:04:01.376Z,13.40
2023-03-24T16:06:35.594Z,12.00
2023-03-24T16:09:11.276Z,12.40
2023-03-24T16:11:41.875Z,12.20
2023-03-24T16:14:23.400Z,15.00
2023-03-24T16:17:00.588Z,11.50
2023-03-24T16:19:29.687Z,15.30
2023-03-24T16:21:57.991Z,15.70
2023-03-24T16:24:30.362Z,15.30
2023-03-24T16:26:58.499Z,16.50
2023-03-24T16:29:30.027Z,13.60
2023-03-24T16:31:59.001Z,13.60
2023-03-24T16:34:27.155Z,15.40
2023-03-24T16:36:57.466Z,16.80
2023-03-24T16:39:27.502Z,14.70
2023-03-24T16:42:01.743Z,15.60
2023-03-24T16:44:30.677Z,15.40
2023-03-24T16:46:58.783Z,14.40
2023-03-24T16:49:28.405Z,13.40
2023-03-24T16:51:57.380Z,13.80
2023-03-24T16:54:33.873Z,18.10
2023-03-24T16:57:02.051Z,16.50
2023-03-24T16:59:30.511Z,14.10
2023-03-24T17:02:03.249Z,17.20
2023-03-24T17:04:34.206Z,17.30
2023-03-24T17:09:36.213Z,17.60
2023-03-24T17:12:04.879Z,18.20
2023-03-24T17:14:33.279Z,16.90
2023-03-24T17:17:04.649Z,16.70
2023-03-24T17:19:33.121Z,17.40
2023-03-24T17:22:05.938Z,16.80
2023-03-24T17:24:41.743Z,15.90
2023-03-24T17:27:14.950Z,20.50
2023-03-24T17:29:43.196Z,19.30
2023-03-24T17:32:12.133Z,21.70
2023-03-24T17:34:45.643Z,20.60
2023-03-24T17:37:14.587Z,19.00
2023-03-24T17:39:43.208Z,21.10
2023-03-24T17:42:14.662Z,20.50
2023-03-24T17:44:44.809Z,19.80
2023-03-24T17:47:12.824Z,19.50
2023-03-24T17:50:01.644Z,20.30
2023-03-24T17:52:41.139Z,17.90
2023-03-24T17:55:10.438Z,17.30
2023-03-24T17:57:38.771Z,20.50
2023-03-24T18:00:10.360Z,24.00
2023-03-24T18:02:39.448Z,20.70
2023-03-24T18:05:11.860Z,19.80
2023-03-24T18:07:40.827Z,16.60
2023-03-24T18:10:09.337Z,21.90
2023-03-24T18:12:38.522Z,18.10
2023-03-24T18:15:07.640Z,18.30
2023-03-24T18:17:36.483Z,18.60
2023-03-24T18:22:41.063Z,20.60
2023-03-24T18:25:10.604Z,17.00
2023-03-24T18:27:45.861Z,17.20
2023-03-24T18:30:14.615Z,20.20
2023-03-24T18:32:43.074Z,19.80
2023-03-24T18:35:16.722Z,17.90
2023-03-24T18:37:45.276Z,18.50
2023-03-24T18:40:15.840Z,17.70
2023-03-24T18:42:45.334Z,21.20
2023-03-24T18:45:18.412Z,20.10
2023-03-24T18:47:48.091Z,20.30
2023-03-24T18:50:17.792Z,18.90
2023-03-24T18:52:50.623Z,21.50
2023-03-24T18:55:21.003Z,16.70
2023-03-24T18:57:49.524Z,17.10
2023-03-24T19:00:20.259Z,17.30
2023-03-24T19:02:52.462Z,18.70
2023-03-24T19:05:20.701Z,17.00
2023-03-24T19:07:52.242Z,14.60
2023-03-24T19:10:20.893Z,20.20
2023-03-24T19:12:50.664Z,17.20
2023-03-24T19:15:25.114Z,16.60
2023-03-24T19:17:53.332Z,18.50
2023-03-24T19:20:27.443Z,13.90
2023-03-24T19:22:59.789Z,14.70
2023-03-24T19:25:28.119Z,17.00
2023-03-24T19:27:57.235Z,17.30
2023-03-24T19:30:25.815Z,15.00
2023-03-24T19:32:55.131Z,15.60
2023-03-24T19:35:27.349Z,15.60
2023-03-24T19:37:56.718Z,15.50
2023-03-24T19:40:27.943Z,14.90
2023-03-24T19:42:55.981Z,18.90
2023-03-24T19:45:27.751Z,18.50
2023-03-24T19:47:56.725Z,23.10
2023-03-24T19:50:25.498Z,21.20
2023-03-24T19:52:54.133Z,17.20
2023-03-24T19:55:22.206Z,17.30
2023-03-24T19:57:50.288Z,19.00
2023-03-24T20:00:19.274Z,18.90
2023-03-24T20:02:48.295Z,15.10
2023-03-24T20:05:17.474Z,13.30
2023-03-24T20:07:48.027Z,17.80
2023-03-24T20:10:17.483Z,19.80
2023-03-24T20:12:45.743Z,15.30
2023-03-24T20:15:14.834Z,15.90
2023-03-24T20:17:42.967Z,14.90
2023-03-24T20:20:15.750Z,15.90
2023-03-24T20:22:49.379Z,19.20
2023-03-24T20:25:19.069Z,16.30
2023-03-24T20:27:48.042Z,19.70
2023-03-24T20:30:17.636Z,17.50
2023-03-24T20:32:48.031Z,15.00
2023-03-24T20:35:18.256Z,19.00
2023-03-24T20:37:46.995Z,19.50
2023-03-24T20:40:15.251Z,16.80
2023-03-24T20:42:44.147Z,19.20
2023-03-24T20:45:12.231Z,15.90
2023-03-24T20:47:44.365Z,21.10
2023-03-24T20:50:12.885Z,20.10
2023-03-24T20:52:47.491Z,19.50
2023-03-24T20:55:36.145Z,21.20
2023-03-24T20:58:09.322Z,18.10
2023-03-24T21:00:43.812Z,17.60
2023-03-24T21:03:13.011Z,17.60
2023-03-24T21:05:41.440Z,20.10
2023-03-24T21:08:09.554Z,21.40
2023-03-24T21:10:57.625Z,20.50
2023-03-24T21:13:36.966Z,17.70
2023-03-24T21:16:08.836Z,17.70
2023-03-24T21:18:44.071Z,18.40
2023-03-24T21:21:13.056Z,19.90
2023-03-24T21:23:42.388Z,17.10
2023-03-24T21:26:15.853Z,19.40
2023-03-24T21:28:44.813Z,17.10
2023-03-24T21:31:19.760Z,17.20
2023-03-24T21:33:48.817Z,15.70
2023-03-24T21:36:17.155Z,15.40
2023-03-24T21:38:49.971Z,17.60
2023-03-24T21:41:18.711Z,14.90
2023-03-24T21:43:47.001Z,14.40
2023-03-24T21:46:21.655Z,14.90
2023-03-24T21:48:52.367Z,14.90
2023-03-24T21:51:24.202Z,14.50
2023-03-24T21:53:55.822Z,15.70
2023-03-24T21:56:24.780Z,15.70
2023-03-24T21:58:55.981Z,14.80
2023-03-24T22:01:25.296Z,17.30
2023-03-24T22:03:58.757Z,16.40
2023-03-24T22:06:38.676Z,15.80
2023-03-24T22:09:06.869Z,14.00
2023-03-24T22:11:35.363Z,15.10
2023-03-24T22:14:10.527Z,19.20
2023-03-24T22:16:41.110Z,14.70
2023-03-24T22:19:09.914Z,16.40
2023-03-24T22:21:39.744Z,16.80
2023-03-24T22:24:08.642Z,13.90
2023-03-24T22:26:36.952Z,16.50
2023-03-24T22:29:06.189Z,16.90
2023-03-24T22:31:34.725Z,13.70
2023-03-24T22:34:02.667Z,15.30
2023-03-24T22:36:32.372Z,17.70
2023-03-24T22:39:00.652Z,15.80
2023-03-24T22:41:28.741Z,14.90
2023-03-24T22:43:57.173Z,16.30
2023-03-24T22:46:25.607Z,15.00
2023-03-24T22:48:54.696Z,16.80
2023-03-24T22:51:22.814Z,19.30
2023-03-24T22:53:52.635Z,14.90
2023-03-24T22:56:20.768Z,13.70
2023-03-24T22:58:49.167Z,15.70
2023-03-24T23:01:18.393Z,16.80
2023-03-24T23:03:46.780Z,13.60
2023-03-24T23:06:21.518Z,12.80
2023-03-24T23:08:53.634Z,15.20
2023-03-24T23:11:21.857Z,12.70
2023-03-24T23:14:08.225Z,17.60
2023-03-24T23:16:38.027Z,18.20
2023-03-24T23:19:12.355Z,17.10
2023-03-24T23:21:43.248Z,16.40
2023-03-24T23:24:11.268Z,19.80
2023-03-24T23:26:39.236Z,17.10
2023-03-24T23:29:07.712Z,18.10
2023-03-24T23:31:37.428Z,19.40
2023-03-24T23:34:07.630Z,17.00
2023-03-24T23:36:35.944Z,19.80
2023-03-24T23:39:05.960Z,20.40
2023-03-24T23:41:36.024Z,19.00
2023-03-24T23:44:04.417Z,19.00
2023-03-24T23:46:33.811Z,17.70
2023-03-24T23:49:02.096Z,17.50
2023-03-24T23:51:33.161Z,16.70
2023-03-24T23:54:01.166Z,18.90
2023-03-24T23:56:40.644Z,16.50
2023-03-24T23:59:09.945Z,19.90
